Time;durP1;ratioP1;P1;durP2;ratioP2;P2;SDS_P1;SDS_P2;PMS_P1;PMS_P2;Temp;Humidity;BMP_temperature;BMP_pressure;BME280_temperature;BME280_humidity;BME280_pressure;Samples;Min_cycle;Max_cycle;Signal;HPM_P1;HPM_P2
2022/05/23 00:01:34;;;;;;;3.10;2.67;;;;;;;;;;5048435;28;20060;-61
2022/05/23 00:03:59;;;;;;;4.15;2.50;;;;;;;;;;5046334;28;20095;-59
2022/05/23 00:06:25;;;;;;;3.63;2.88;;;;;;;;;;5046317;28;20070;-59
2022/05/23 00:08:50;;;;;;;4.22;2.97;;;;;;;;;;5045247;28;20020;-59
2022/05/23 00:11:18;;;;;;;3.75;3.10;;;;;;;;;;5049979;28;20494;-59
2022/05/23 00:13:44;;;;;;;4.47;3.10;;;;;;;;;;5050046;28;20064;-60
2022/05/23 00:16:15;;;;;;;4.10;2.92;;;;;;;;;;5050447;28;20063;-59
2022/05/23 00:18:41;;;;;;;4.90;3.10;;;;;;;;;;5049603;28;20056;-60
2022/05/23 00:21:06;;;;;;;3.78;3.17;;;;;;;;;;5048157;28;20480;-60
2022/05/23 00:23:31;;;;;;;6.40;3.10;;;;;;;;;;5052569;28;20428;-59
2022/05/23 00:25:57;;;;;;;6.43;2.92;;;;;;;;;;5041460;28;20029;-59
2022/05/23 00:28:22;;;;;;;3.97;3.30;;;;;;;;;;5050333;28;20449;-58
2022/05/23 00:30:47;;;;;;;3.17;2.72;;;;;;;;;;5050485;28;20161;-60
2022/05/23 00:35:57;;;;;;;4.75;2.85;;;;;;;;;;5053885;28;20028;-60
2022/05/23 00:38:22;;;;;;;4.72;3.10;;;;;;;;;;5050406;28;20033;-59
2022/05/23 00:43:51;;;;;;;4.18;2.83;;;;;;;;;;5049226;28;20044;-60
2022/05/23 00:46:17;;;;;;;4.75;2.80;;;;;;;;;;5048201;28;20036;-58
2022/05/23 00:48:42;;;;;;;4.60;2.90;;;;;;;;;;5051076;28;20040;-60
2022/05/23 00:51:12;;;;;;;4.40;2.92;;;;;;;;;;5049721;28;20115;-59
2022/05/23 00:53:46;;;;;;;5.55;3.05;;;;;;;;;;5049595;28;20360;-59
2022/05/23 00:56:14;;;;;;;6.72;3.17;;;;;;;;;;5048687;28;20037;-60
2022/05/23 00:58:45;;;;;;;3.60;2.78;;;;;;;;;;5052738;28;20078;-60
2022/05/23 01:01:14;;;;;;;3.90;3.28;;;;;;;;;;5052178;28;20116;-59
2022/05/23 01:03:40;;;;;;;3.67;3.28;;;;;;;;;;5053020;28;20061;-60
2022/05/23 01:06:06;;;;;;;6.95;3.53;;;;;;;;;;5047946;28;20065;-60
2022/05/23 01:08:35;;;;;;;3.80;3.28;;;;;;;;;;5055026;28;20028;-60
2022/05/23 01:11:01;;;;;;;5.10;2.83;;;;;;;;;;5050928;28;20029;-59
2022/05/23 01:13:27;;;;;;;8.55;2.95;;;;;;;;;;5053390;28;20032;-59
2022/05/23 01:15:52;;;;;;;5.25;3.38;;;;;;;;;;5049351;28;20018;-60
2022/05/23 01:18:17;;;;;;;3.63;2.85;;;;;;;;;;5056172;28;20025;-60
2022/05/23 01:20:46;;;;;;;3.95;2.85;;;;;;;;;;5052063;28;20029;-60
2022/05/23 01:23:37;;;;;;;6.72;3.00;;;;;;;;;;5054136;28;20237;-60
2022/05/23 01:26:03;;;;;;;3.30;3.00;;;;;;;;;;5049578;28;20041;-60
2022/05/23 01:28:34;;;;;;;5.43;2.70;;;;;;;;;;5049343;28;20024;-60
2022/05/23 01:31:00;;;;;;;4.43;3.00;;;;;;;;;;5056329;28;20031;-60
2022/05/23 01:33:26;;;;;;;5.65;2.88;;;;;;;;;;5046626;28;20108;-59
2022/05/23 01:35:51;;;;;;;4.50;3.25;;;;;;;;;;5054012;28;20036;-59
2022/05/23 01:38:16;;;;;;;6.80;3.10;;;;;;;;;;5051206;28;20063;-58
2022/05/23 01:40:42;;;;;;;4.90;3.15;;;;;;;;;;5048329;28;20037;-61
2022/05/23 01:43:07;;;;;;;4.55;3.05;;;;;;;;;;5047839;28;20579;-59
2022/05/23 01:45:36;;;;;;;4.70;3.20;;;;;;;;;;5048435;28;20018;-58
2022/05/23 01:48:02;;;;;;;4.63;3.05;;;;;;;;;;5049071;28;20430;-60
2022/05/23 01:50:28;;;;;;;3.40;3.10;;;;;;;;;;5049605;28;20121;-60
2022/05/23 01:52:54;;;;;;;5.90;3.33;;;;;;;;;;5050796;28;20021;-59
2022/05/23 01:55:21;;;;;;;8.00;3.42;;;;;;;;;;5050088;28;20038;-59
2022/05/23 01:57:46;;;;;;;4.05;2.97;;;;;;;;;;5047638;28;20032;-60
2022/05/23 02:02:57;;;;;;;3.55;2.45;;;;;;;;;;5050017;28;20035;-60
2022/05/23 02:05:25;;;;;;;5.88;3.13;;;;;;;;;;5049038;28;20033;-60
2022/05/23 02:07:51;;;;;;;4.90;3.20;;;;;;;;;;5048366;28;20036;-60
2022/05/23 02:10:17;;;;;;;4.90;3.20;;;;;;;;;;5052617;28;20036;-59
2022/05/23 02:12:42;;;;;;;4.72;3.28;;;;;;;;;;5052767;28;20024;-60
2022/05/23 02:15:08;;;;;;;5.57;2.80;;;;;;;;;;5048813;28;20455;-60
2022/05/23 02:17:33;;;;;;;6.72;3.30;;;;;;;;;;5054981;28;20082;-60
2022/05/23 02:19:59;;;;;;;5.13;3.30;;;;;;;;;;5047959;28;20098;-59
2022/05/23 02:22:24;;;;;;;8.15;3.10;;;;;;;;;;5054734;28;20128;-59
2022/05/23 02:24:50;;;;;;;7.25;3.47;;;;;;;;;;5052070;28;20025;-60
2022/05/23 02:27:15;;;;;;;6.25;3.10;;;;;;;;;;5054136;28;20024;-60
2022/05/23 02:29:41;;;;;;;6.43;3.60;;;;;;;;;;5049706;28;20036;-60
2022/05/23 02:32:07;;;;;;;4.32;3.00;;;;;;;;;;5048148;28;20036;-60
2022/05/23 02:34:33;;;;;;;5.93;3.20;;;;;;;;;;5048335;28;20127;-59
2022/05/23 02:36:58;;;;;;;5.20;3.00;;;;;;;;;;5052547;28;20095;-60
2022/05/23 02:39:23;;;;;;;6.63;3.20;;;;;;;;;;5050392;28;20025;-60
2022/05/23 02:41:50;;;;;;;3.63;3.15;;;;;;;;;;5047684;28;20073;-60
2022/05/23 02:44:15;;;;;;;5.35;3.22;;;;;;;;;;5047083;28;20017;-60
2022/05/23 02:46:41;;;;;;;7.32;3.30;;;;;;;;;;5048291;28;20490;-59
2022/05/23 02:49:06;;;;;;;5.82;3.90;;;;;;;;;;5048085;28;20372;-59
2022/05/23 02:51:33;;;;;;;5.10;3.28;;;;;;;;;;5049145;28;20028;-60
2022/05/23 02:53:59;;;;;;;6.28;3.75;;;;;;;;;;5047959;28;20025;-59
2022/05/23 02:56:24;;;;;;;3.58;3.10;;;;;;;;;;5050534;28;20030;-60
2022/05/23 02:58:50;;;;;;;4.97;3.30;;;;;;;;;;5045796;28;20029;-60
2022/05/23 03:01:16;;;;;;;3.83;2.95;;;;;;;;;;5046565;28;20037;-60
2022/05/23 03:03:41;;;;;;;5.97;3.58;;;;;;;;;;5049875;28;20555;-60
2022/05/23 03:06:08;;;;;;;4.65;3.28;;;;;;;;;;5050484;28;20025;-60
2022/05/23 03:08:34;;;;;;;7.55;3.03;;;;;;;;;;5053466;28;20238;-60
2022/05/23 03:11:01;;;;;;;4.65;3.15;;;;;;;;;;5052285;28;20021;-60
2022/05/23 03:13:27;;;;;;;6.68;3.22;;;;;;;;;;5052358;28;20024;-61
2022/05/23 03:15:53;;;;;;;3.80;3.20;;;;;;;;;;5046163;28;20365;-60
2022/05/23 03:18:18;;;;;;;3.67;3.28;;;;;;;;;;5056344;28;20028;-60
2022/05/23 03:20:44;;;;;;;5.53;3.67;;;;;;;;;;5050839;28;20029;-61
2022/05/23 03:28:42;;;;;;;4.30;3.78;;;;;;;;;;5050509;28;20032;-60
2022/05/23 03:31:07;;;;;;;4.35;3.67;;;;;;;;;;5046080;28;20033;-61
2022/05/23 03:33:33;;;;;;;4.57;3.15;;;;;;;;;;5049502;28;20032;-61
2022/05/23 03:36:00;;;;;;;6.03;3.72;;;;;;;;;;5053924;28;20031;-61
2022/05/23 03:38:25;;;;;;;5.53;3.22;;;;;;;;;;5049713;28;20025;-59
2022/05/23 03:40:51;;;;;;;5.05;3.28;;;;;;;;;;5045218;28;20063;-60
2022/05/23 03:43:16;;;;;;;7.85;3.60;;;;;;;;;;5043867;28;20123;-60
2022/05/23 03:45:42;;;;;;;5.28;3.47;;;;;;;;;;5046629;28;20119;-61
2022/05/23 03:48:08;;;;;;;4.97;2.97;;;;;;;;;;5047025;28;20442;-61
2022/05/23 03:50:34;;;;;;;5.22;3.28;;;;;;;;;;5048317;28;20107;-60
2022/05/23 03:53:01;;;;;;;3.85;3.28;;;;;;;;;;5045572;28;20074;-60
2022/05/23 03:55:27;;;;;;;4.93;3.45;;;;;;;;;;5047112;28;20075;-60
2022/05/23 03:57:52;;;;;;;5.78;3.80;;;;;;;;;;5045941;28;20052;-61
2022/05/23 04:00:19;;;;;;;4.60;3.60;;;;;;;;;;5048590;28;20064;-59
2022/05/23 04:02:45;;;;;;;6.57;3.60;;;;;;;;;;5048189;28;20403;-61
2022/05/23 04:05:13;;;;;;;5.07;4.13;;;;;;;;;;5044657;28;20029;-61
2022/05/23 04:07:40;;;;;;;5.10;3.65;;;;;;;;;;5047553;28;20059;-61
2022/05/23 04:10:08;;;;;;;6.80;3.42;;;;;;;;;;5047205;28;20116;-60
2022/05/23 04:12:34;;;;;;;4.80;3.80;;;;;;;;;;5053395;28;20048;-61
2022/05/23 04:14:59;;;;;;;6.05;3.42;;;;;;;;;;5049283;28;20037;-60
2022/05/23 04:17:25;;;;;;;6.43;3.58;;;;;;;;;;5054720;28;20103;-58
2022/05/23 04:19:50;;;;;;;4.75;3.80;;;;;;;;;;5057154;28;20104;-60
2022/05/23 04:22:16;;;;;;;6.55;3.92;;;;;;;;;;5056522;28;20033;-60
2022/05/23 04:24:41;;;;;;;8.13;4.63;;;;;;;;;;5052042;28;20377;-60
2022/05/23 04:27:07;;;;;;;7.22;4.20;;;;;;;;;;5053751;28;20034;-60
2022/05/23 04:29:32;;;;;;;9.30;4.28;;;;;;;;;;5060469;28;20374;-61
2022/05/23 04:31:58;;;;;;;7.03;4.13;;;;;;;;;;5053811;28;20060;-61
2022/05/23 04:37:07;;;;;;;6.82;4.40;;;;;;;;;;5044111;28;20040;-60
2022/05/23 04:39:33;;;;;;;5.60;4.25;;;;;;;;;;5050538;28;20021;-60
2022/05/23 04:42:00;;;;;;;7.93;4.28;;;;;;;;;;5050277;28;20047;-60
2022/05/23 04:44:26;;;;;;;5.82;4.75;;;;;;;;;;5048980;28;20139;-59
2022/05/23 04:49:41;;;;;;;6.38;5.00;;;;;;;;;;5052513;28;20070;-59
2022/05/23 04:52:09;;;;;;;4.90;4.40;;;;;;;;;;5048160;28;20040;-61
2022/05/23 04:54:35;;;;;;;6.38;4.80;;;;;;;;;;5046860;28;20064;-60
2022/05/23 04:57:00;;;;;;;7.25;5.28;;;;;;;;;;5048301;28;20047;-60
2022/05/23 04:59:26;;;;;;;6.18;5.35;;;;;;;;;;5053501;28;20480;-59
2022/05/23 05:01:51;;;;;;;6.10;4.90;;;;;;;;;;5051281;28;20035;-60
2022/05/23 05:04:17;;;;;;;5.72;4.68;;;;;;;;;;5056926;28;20056;-59
2022/05/23 05:06:43;;;;;;;6.88;4.70;;;;;;;;;;5047572;28;20051;-60
2022/05/23 05:09:08;;;;;;;7.63;4.25;;;;;;;;;;5050889;28;20028;-59
2022/05/23 05:11:34;;;;;;;5.72;4.90;;;;;;;;;;5048948;28;20146;-60
2022/05/23 05:13:59;;;;;;;7.20;4.80;;;;;;;;;;5051609;28;20032;-61
2022/05/23 05:16:24;;;;;;;6.45;4.70;;;;;;;;;;5051539;28;20033;-59
2022/05/23 05:18:50;;;;;;;7.40;4.97;;;;;;;;;;5055310;28;20028;-61
2022/05/23 05:21:15;;;;;;;7.72;5.38;;;;;;;;;;5053573;28;20037;-60
2022/05/23 05:23:41;;;;;;;8.85;5.22;;;;;;;;;;5052530;28;20029;-59
2022/05/23 05:26:06;;;;;;;5.50;4.60;;;;;;;;;;5047396;28;20098;-60
2022/05/23 05:28:33;;;;;;;6.53;5.20;;;;;;;;;;5048279;28;20035;-60
2022/05/23 05:31:33;;;;;;;6.65;5.03;;;;;;;;;;5056591;28;20035;-59
2022/05/23 05:34:04;;;;;;;6.88;5.10;;;;;;;;;;5046231;28;20041;-60
2022/05/23 05:36:35;;;;;;;8.23;5.25;;;;;;;;;;5048006;28;20025;-60
2022/05/23 05:39:05;;;;;;;7.13;5.22;;;;;;;;;;5047077;28;20025;-59
2022/05/23 05:41:36;;;;;;;8.32;5.60;;;;;;;;;;5040468;28;20418;-60
2022/05/23 05:44:07;;;;;;;10.57;5.57;;;;;;;;;;5037258;28;20041;-58
2022/05/23 05:46:47;;;;;;;7.47;5.20;;;;;;;;;;5045486;28;20453;-58
2022/05/23 05:49:18;;;;;;;7.95;6.32;;;;;;;;;;5044252;28;20028;-58
2022/05/23 05:51:46;;;;;;;7.25;5.18;;;;;;;;;;5049276;28;20028;-58
2022/05/23 05:54:16;;;;;;;7.28;4.70;;;;;;;;;;5049724;28;20029;-58
2022/05/23 05:56:43;;;;;;;8.07;4.95;;;;;;;;;;5050569;28;20037;-59
2022/05/23 05:59:09;;;;;;;7.88;5.18;;;;;;;;;;5050109;28;21233;-59
2022/05/23 06:01:34;;;;;;;7.03;5.00;;;;;;;;;;5052510;28;20032;-59
2022/05/23 06:04:00;;;;;;;5.30;4.80;;;;;;;;;;5049185;28;20029;-60
2022/05/23 06:11:53;;;;;;;5.85;4.50;;;;;;;;;;5052778;28;20147;-60
2022/05/23 06:14:19;;;;;;;6.50;4.50;;;;;;;;;;5047130;28;20024;-59
2022/05/23 06:16:44;;;;;;;7.88;4.65;;;;;;;;;;5045145;28;20079;-59
2022/05/23 06:19:09;;;;;;;8.27;4.75;;;;;;;;;;5051510;28;20035;-60
2022/05/23 06:21:35;;;;;;;7.40;4.55;;;;;;;;;;5046935;28;20029;-61
2022/05/23 06:24:00;;;;;;;6.05;4.45;;;;;;;;;;5035769;28;20056;-59
2022/05/23 06:26:26;;;;;;;5.60;4.20;;;;;;;;;;5044877;28;20473;-59
2022/05/23 06:28:52;;;;;;;8.18;4.50;;;;;;;;;;5053094;28;20025;-60
2022/05/23 06:31:19;;;;;;;8.05;5.05;;;;;;;;;;5057584;28;20570;-60
2022/05/23 06:33:45;;;;;;;8.55;5.40;;;;;;;;;;5040929;28;20447;-61
2022/05/23 06:36:12;;;;;;;11.07;6.15;;;;;;;;;;5040774;28;20040;-61
2022/05/23 06:38:38;;;;;;;6.88;5.10;;;;;;;;;;5045674;28;20029;-60
2022/05/23 06:41:06;;;;;;;9.80;5.35;;;;;;;;;;5045560;28;20044;-60
2022/05/23 06:43:35;;;;;;;8.25;5.90;;;;;;;;;;5044850;28;20029;-59
2022/05/23 06:46:02;;;;;;;9.18;6.07;;;;;;;;;;5047469;28;20033;-60
2022/05/23 06:48:28;;;;;;;6.35;4.82;;;;;;;;;;5048000;28;20029;-60
2022/05/23 06:50:53;;;;;;;7.57;4.82;;;;;;;;;;5046908;28;20453;-61
2022/05/23 06:53:21;;;;;;;7.45;4.90;;;;;;;;;;5044271;28;20486;-60
2022/05/23 06:55:46;;;;;;;12.25;5.07;;;;;;;;;;5043896;28;20021;-60
2022/05/23 06:58:12;;;;;;;8.02;5.45;;;;;;;;;;5045490;28;20114;-61
2022/05/23 07:00:38;;;;;;;10.55;5.75;;;;;;;;;;5046201;28;20128;-60
2022/05/23 07:03:04;;;;;;;8.05;5.40;;;;;;;;;;5040517;28;20032;-59
2022/05/23 07:13:44;;;;;;;9.15;5.18;;;;;;;;;;5042571;28;22791;-60
2022/05/23 07:16:10;;;;;;;7.47;5.28;;;;;;;;;;5045552;28;20024;-60
2022/05/23 07:18:37;;;;;;;8.52;5.40;;;;;;;;;;5051092;28;20150;-60
2022/05/23 07:21:07;;;;;;;7.50;4.90;;;;;;;;;;5049575;28;20036;-61
2022/05/23 07:23:35;;;;;;;12.00;5.97;;;;;;;;;;5048743;28;20021;-61
2022/05/23 07:26:06;;;;;;;7.90;5.72;;;;;;;;;;5039916;28;20033;-61
2022/05/23 07:28:32;;;;;;;9.27;5.72;;;;;;;;;;5045275;28;20056;-61
2022/05/23 07:30:58;;;;;;;7.68;5.25;;;;;;;;;;5043999;28;20029;-60
2022/05/23 07:33:23;;;;;;;7.50;4.85;;;;;;;;;;5040839;28;20476;-60
2022/05/23 07:36:00;;;;;;;6.95;5.25;;;;;;;;;;5043232;28;20013;-60
2022/05/23 07:38:28;;;;;;;8.02;4.72;;;;;;;;;;5045168;28;20067;-60
2022/05/23 07:40:54;;;;;;;8.77;4.78;;;;;;;;;;5042637;28;20028;-60
2022/05/23 07:43:21;;;;;;;8.80;4.85;;;;;;;;;;5044983;28;20027;-61
2022/05/23 07:45:48;;;;;;;8.52;4.88;;;;;;;;;;5044572;28;20025;-60
2022/05/23 07:48:14;;;;;;;9.10;5.25;;;;;;;;;;5046009;28;20110;-61
2022/05/23 07:50:39;;;;;;;9.00;5.82;;;;;;;;;;5047353;28;20063;-59
2022/05/23 08:01:17;;;;;;;6.68;4.97;;;;;;;;;;5048477;28;20093;-60
2022/05/23 08:03:46;;;;;;;10.98;4.90;;;;;;;;;;5048710;28;20488;-61
2022/05/23 08:06:13;;;;;;;7.88;5.40;;;;;;;;;;5043845;28;20438;-61
2022/05/23 08:08:39;;;;;;;10.27;5.40;;;;;;;;;;5048207;28;20033;-60
2022/05/23 08:11:08;;;;;;;6.97;4.78;;;;;;;;;;5045580;28;20040;-61
2022/05/23 08:13:35;;;;;;;7.72;5.28;;;;;;;;;;5040568;28;20059;-59
2022/05/23 08:16:01;;;;;;;7.15;5.10;;;;;;;;;;5043007;28;20520;-61
2022/05/23 08:18:26;;;;;;;10.68;5.60;;;;;;;;;;5043214;28;20029;-60
2022/05/23 08:20:51;;;;;;;7.35;4.93;;;;;;;;;;5042581;28;20062;-61
2022/05/23 08:23:17;;;;;;;9.35;5.45;;;;;;;;;;5044237;28;20418;-61
2022/05/23 08:25:43;;;;;;;11.52;5.30;;;;;;;;;;5044713;28;20545;-60
2022/05/23 08:28:08;;;;;;;7.10;4.60;;;;;;;;;;5045802;28;20029;-61
2022/05/23 08:30:34;;;;;;;8.27;5.13;;;;;;;;;;5045313;28;20083;-61
2022/05/23 08:32:59;;;;;;;6.30;4.80;;;;;;;;;;5044888;28;20733;-61
2022/05/23 08:35:26;;;;;;;7.97;4.90;;;;;;;;;;5043145;28;20021;-60
2022/05/23 08:37:52;;;;;;;8.55;5.13;;;;;;;;;;5044414;28;20033;-61
2022/05/23 08:40:17;;;;;;;8.27;4.65;;;;;;;;;;5043489;28;20414;-60
2022/05/23 08:42:51;;;;;;;12.10;5.38;;;;;;;;;;5044530;28;20029;-61
2022/05/23 08:45:30;;;;;;;11.25;5.38;;;;;;;;;;5042781;28;20029;-60
2022/05/23 08:47:59;;;;;;;;;;;;;;;;;;5040641;28;20506;-61
2022/05/23 08:50:35;;;;;;;10.60;4.97;;;;;;;;;;5049506;28;19955;-61
2022/05/23 08:53:11;;;;;;;11.90;5.45;;;;;;;;;;5045657;28;20025;-60
2022/05/23 08:55:41;;;;;;;6.78;5.15;;;;;;;;;;5038498;28;20064;-61
2022/05/23 08:58:16;;;;;;;9.70;5.95;;;;;;;;;;5043655;28;20029;-60
2022/05/23 09:00:45;;;;;;;5.65;5.00;;;;;;;;;;5047432;28;20032;-61
2022/05/23 09:03:46;;;;;;;8.27;5.00;;;;;;;;;;5048581;28;20511;-60
2022/05/23 09:06:15;;;;;;;9.20;5.30;;;;;;;;;;5049783;28;20044;-62
2022/05/23 09:08:48;;;;;;;;;;;;;;;;;;5046438;28;20419;-61
2022/05/23 09:11:26;;;;;;;7.82;5.00;;;;;;;;;;5046425;28;20414;-61
2022/05/23 09:13:51;;;;;;;8.45;4.78;;;;;;;;;;5053047;28;20067;-60
2022/05/23 09:16:17;;;;;;;7.30;5.75;;;;;;;;;;5048107;28;20451;-61
2022/05/23 09:18:48;;;;;;;11.25;5.75;;;;;;;;;;5048947;28;20040;-61
2022/05/23 09:21:13;;;;;;;7.72;4.82;;;;;;;;;;5048626;28;20454;-59
2022/05/23 09:23:47;;;;;;;7.13;4.75;;;;;;;;;;5053743;28;20025;-60
2022/05/23 09:26:32;;;;;;;9.40;5.68;;;;;;;;;;5051229;28;20543;-60
2022/05/23 09:28:57;;;;;;;10.30;4.95;;;;;;;;;;5049487;28;20404;-61
2022/05/23 09:32:02;;;;;;;9.45;4.97;;;;;;;;;;5052124;28;20032;-61
2022/05/23 09:34:58;;;;;;;8.00;4.90;;;;;;;;;;5045250;28;20028;-60
2022/05/23 09:37:30;;;;;;;7.05;4.90;;;;;;;;;;5045026;28;20068;-61
2022/05/23 09:39:58;;;;;;;6.85;5.55;;;;;;;;;;5042832;28;20066;-62
2022/05/23 09:48:21;;;;;;;5.75;4.60;;;;;;;;;;5045216;28;20040;-60
2022/05/23 09:50:59;;;;;;;8.43;4.93;;;;;;;;;;5049565;28;20121;-61
2022/05/23 09:53:30;;;;;;;8.05;5.82;;;;;;;;;;5046203;28;20487;-61
2022/05/23 09:56:21;;;;;;;9.52;5.78;;;;;;;;;;5049236;28;20047;-61
2022/05/23 09:58:46;;;;;;;14.63;6.00;;;;;;;;;;5048846;28;20444;-62
2022/05/23 10:01:25;;;;;;;10.38;5.72;;;;;;;;;;5051502;28;20059;-60
2022/05/23 10:03:51;;;;;;;9.63;5.53;;;;;;;;;;5045980;28;20029;-61
2022/05/23 10:06:17;;;;;;;13.63;5.22;;;;;;;;;;5045696;28;20075;-61
2022/05/23 10:08:45;;;;;;;8.90;4.88;;;;;;;;;;5045068;28;20029;-61
2022/05/23 10:11:33;;;;;;;8.75;5.68;;;;;;;;;;5044593;28;20021;-60
2022/05/23 10:14:04;;;;;;;10.48;6.45;;;;;;;;;;5043616;28;20551;-60
2022/05/23 10:16:42;;;;;;;11.73;5.47;;;;;;;;;;5050842;28;20407;-60
2022/05/23 10:19:09;;;;;;;9.18;5.47;;;;;;;;;;5046141;28;20020;-61
2022/05/23 10:21:37;;;;;;;10.07;5.88;;;;;;;;;;5045713;28;20036;-60
2022/05/23 10:24:26;;;;;;;11.48;6.05;;;;;;;;;;5044087;28;20040;-61
2022/05/23 10:27:06;;;;;;;11.13;6.18;;;;;;;;;;5042861;28;20632;-61
2022/05/23 10:29:51;;;;;;;9.70;6.60;;;;;;;;;;5052763;28;20428;-60
2022/05/23 10:32:23;;;;;;;9.27;6.05;;;;;;;;;;5042291;28;20537;-61
2022/05/23 10:35:09;;;;;;;11.63;6.75;;;;;;;;;;5045105;28;20068;-60
2022/05/23 10:37:36;;;;;;;11.07;6.78;;;;;;;;;;5047105;28;20048;-60
2022/05/23 10:43:14;;;;;;;12.85;6.82;;;;;;;;;;5046827;28;20067;-60
2022/05/23 10:46:01;;;;;;;10.20;6.80;;;;;;;;;;5043511;28;20086;-61
2022/05/23 10:48:56;;;;;;;8.55;6.82;;;;;;;;;;5047561;28;20032;-62
2022/05/23 10:51:43;;;;;;;15.48;7.35;;;;;;;;;;5045812;28;20037;-62
2022/05/23 10:54:30;;;;;;;12.88;7.20;;;;;;;;;;5046369;28;20387;-61
2022/05/23 10:57:02;;;;;;;11.80;7.90;;;;;;;;;;5050446;28;20025;-61
2022/05/23 10:59:53;;;;;;;12.20;7.72;;;;;;;;;;5051244;28;20021;-61
2022/05/23 11:02:35;;;;;;;10.38;7.63;;;;;;;;;;5047060;28;20037;-62
2022/05/23 11:05:23;;;;;;;13.57;7.93;;;;;;;;;;5047690;28;20755;-62
2022/05/23 11:08:22;;;;;;;15.18;7.50;;;;;;;;;;5042991;28;20044;-62
2022/05/23 11:11:12;;;;;;;12.30;7.35;;;;;;;;;;5040632;28;20508;-61
2022/05/23 11:13:58;;;;;;;14.82;7.97;;;;;;;;;;5049935;28;20037;-62
2022/05/23 11:16:58;;;;;;;10.05;7.40;;;;;;;;;;5047607;28;20028;-60
2022/05/23 11:19:31;;;;;;;14.18;7.70;;;;;;;;;;5044656;28;20048;-62
2022/05/23 11:22:21;;;;;;;15.82;6.75;;;;;;;;;;5045806;28;20029;-62
2022/05/23 11:24:59;;;;;;;9.75;6.55;;;;;;;;;;5047020;28;20215;-62
2022/05/23 11:35:47;;;;;;;16.05;5.18;;;;;;;;;;5045599;28;20502;-62
2022/05/23 11:38:13;;;;;;;;;;;;;;;;;;5043693;28;20037;-62
2022/05/23 11:40:41;;;;;;;9.80;2.75;;;;;;;;;;5040381;28;19959;-61
2022/05/23 11:43:15;;;;;;;11.98;3.22;;;;;;;;;;5040655;28;20021;-61
2022/05/23 11:48:58;;;;;;;10.27;3.13;;;;;;;;;;5042941;28;20074;-60
2022/05/23 11:51:23;;;;;;;10.73;3.38;;;;;;;;;;5044904;28;20032;-61
2022/05/23 11:54:00;;;;;;;11.38;2.40;;;;;;;;;;5042786;28;20497;-62
2022/05/23 11:56:44;;;;;;;6.90;2.35;;;;;;;;;;5040825;28;20029;-59
2022/05/23 11:59:24;;;;;;;6.43;2.95;;;;;;;;;;5040637;28;20112;-60
2022/05/23 12:02:13;;;;;;;10.35;2.90;;;;;;;;;;5044009;28;20479;-61
2022/05/23 12:04:48;;;;;;;8.40;2.00;;;;;;;;;;5041367;28;20076;-61
2022/05/23 12:07:42;;;;;;;8.30;3.03;;;;;;;;;;5044118;28;20494;-61
2022/05/23 12:10:22;;;;;;;10.00;3.00;;;;;;;;;;5045808;28;20035;-60
2022/05/23 12:13:20;;;;;;;16.25;3.88;;;;;;;;;;5046027;28;20025;-61
2022/05/23 12:15:48;;;;;;;10.63;2.65;;;;;;;;;;5047915;28;20029;-60
2022/05/23 12:18:19;;;;;;;8.95;2.53;;;;;;;;;;5044508;28;20037;-61
2022/05/23 12:20:47;;;;;;;8.23;3.25;;;;;;;;;;5044833;28;20127;-60
2022/05/23 12:23:28;;;;;;;6.78;2.40;;;;;;;;;;5043164;28;20461;-61
2022/05/23 12:26:26;;;;;;;5.95;2.88;;;;;;;;;;5049539;28;20017;-61
2022/05/23 12:28:56;;;;;;;14.02;4.40;;;;;;;;;;5035804;28;20052;-61
2022/05/23 12:31:27;;;;;;;14.60;4.00;;;;;;;;;;5042150;28;20029;-61
2022/05/23 12:34:02;;;;;;;9.95;3.00;;;;;;;;;;5045714;28;20025;-62
2022/05/23 12:36:31;;;;;;;5.00;2.45;;;;;;;;;;5044143;28;20029;-61
2022/05/23 12:39:21;;;;;;;11.48;2.17;;;;;;;;;;5046873;28;20488;-61
2022/05/23 12:41:54;;;;;;;9.80;2.10;;;;;;;;;;5044753;28;20040;-61
2022/05/23 12:44:35;;;;;;;10.27;3.35;;;;;;;;;;5049719;28;20046;-60
2022/05/23 12:47:18;;;;;;;6.30;2.50;;;;;;;;;;5047707;28;20033;-61
2022/05/23 12:50:15;;;;;;;7.95;3.28;;;;;;;;;;5051176;28;20181;-60
2022/05/23 12:53:17;;;;;;;9.27;3.08;;;;;;;;;;5049638;28;20455;-60
2022/05/23 12:56:22;;;;;;;6.50;2.78;;;;;;;;;;5044861;28;20044;-61
2022/05/23 12:58:56;;;;;;;8.23;2.13;;;;;;;;;;5046364;28;20041;-60
2022/05/23 13:01:28;;;;;;;8.98;1.67;;;;;;;;;;5046226;28;20455;-60
2022/05/23 13:03:53;;;;;;;5.55;1.77;;;;;;;;;;5052321;28;20044;-60
2022/05/23 13:06:33;;;;;;;7.93;1.65;;;;;;;;;;5054563;28;20423;-60
2022/05/23 13:09:06;;;;;;;8.02;2.10;;;;;;;;;;5046914;28;20063;-59
2022/05/23 13:11:46;;;;;;;9.80;3.17;;;;;;;;;;5045846;28;20029;-61
2022/05/23 13:14:12;;;;;;;10.48;2.35;;;;;;;;;;5047934;28;20495;-60
2022/05/23 13:16:39;;;;;;;7.32;2.25;;;;;;;;;;5048007;28;20083;-60
2022/05/23 13:22:12;;;;;;;7.28;2.80;;;;;;;;;;5051587;28;20077;-60
2022/05/23 13:24:55;;;;;;;9.55;2.63;;;;;;;;;;5047897;28;20029;-60
2022/05/23 13:27:29;;;;;;;8.63;2.25;;;;;;;;;;5045137;28;20025;-59
2022/05/23 13:30:23;;;;;;;7.65;2.47;;;;;;;;;;5044401;28;20037;-59
2022/05/23 13:33:11;;;;;;;9.15;2.13;;;;;;;;;;5044098;28;20414;-61
2022/05/23 13:35:38;;;;;;;10.63;2.10;;;;;;;;;;5043253;28;20044;-61
2022/05/23 13:38:18;;;;;;;9.63;2.42;;;;;;;;;;5045997;28;20033;-61
2022/05/23 13:40:46;;;;;;;9.98;2.45;;;;;;;;;;5042913;28;20044;-61
2022/05/23 13:43:14;;;;;;;8.18;2.17;;;;;;;;;;5046158;28;20120;-60
2022/05/23 13:45:42;;;;;;;7.70;1.70;;;;;;;;;;5048087;28;20060;-59
2022/05/23 13:48:16;;;;;;;6.82;1.92;;;;;;;;;;5044988;28;20068;-60
2022/05/23 13:50:49;;;;;;;8.00;1.85;;;;;;;;;;5046170;28;20106;-61
2022/05/23 13:53:24;;;;;;;7.70;1.58;;;;;;;;;;5049029;28;20025;-61
2022/05/23 13:55:50;;;;;;;5.15;1.98;;;;;;;;;;5046266;28;20032;-61
2022/05/23 13:58:21;;;;;;;9.10;2.47;;;;;;;;;;5044497;28;20029;-59
2022/05/23 14:00:58;;;;;;;11.35;2.13;;;;;;;;;;5044691;28;20116;-59
2022/05/23 14:04:00;;;;;;;8.13;2.33;;;;;;;;;;5046603;28;20112;-60
2022/05/23 14:06:31;;;;;;;9.30;2.13;;;;;;;;;;5032511;28;20075;-60
2022/05/23 14:09:00;;;;;;;6.45;2.53;;;;;;;;;;5044784;28;20079;-59
2022/05/23 14:11:38;;;;;;;6.60;2.40;;;;;;;;;;5050738;28;20599;-60
2022/05/23 14:14:30;;;;;;;10.05;3.10;;;;;;;;;;5047547;28;20107;-59
2022/05/23 14:17:00;;;;;;;5.03;2.20;;;;;;;;;;5047348;28;20401;-60
2022/05/23 14:19:41;;;;;;;14.43;6.50;;;;;;;;;;5043454;28;20137;-60
2022/05/23 14:22:21;;;;;;;6.45;2.25;;;;;;;;;;5040865;28;20029;-60
2022/05/23 14:24:50;;;;;;;7.85;2.33;;;;;;;;;;5044639;28;20059;-61
2022/05/23 14:27:32;;;;;;;7.88;2.33;;;;;;;;;;5043737;28;20111;-60
2022/05/23 14:30:17;;;;;;;6.20;2.08;;;;;;;;;;5044732;28;20381;-60
2022/05/23 14:33:01;;;;;;;5.57;2.03;;;;;;;;;;5045534;28;20361;-60
2022/05/23 14:35:48;;;;;;;6.05;1.85;;;;;;;;;;5044075;28;20476;-60
2022/05/23 14:38:48;;;;;;;7.57;2.20;;;;;;;;;;5045621;28;20017;-62
2022/05/23 14:41:30;;;;;;;10.02;4.28;;;;;;;;;;5043678;28;20090;-63
2022/05/23 14:44:07;;;;;;;6.70;2.80;;;;;;;;;;5045495;28;20033;-61
2022/05/23 14:46:34;;;;;;;12.10;2.70;;;;;;;;;;5043191;28;20147;-62
2022/05/23 14:49:28;;;;;;;8.13;2.33;;;;;;;;;;5050561;28;20029;-60
2022/05/23 14:51:53;;;;;;;6.60;2.03;;;;;;;;;;5046836;28;20048;-60
2022/05/23 14:57:18;;;;;;;11.02;2.35;;;;;;;;;;5048580;28;20055;-60
2022/05/23 15:02:42;;;;;;;8.20;2.00;;;;;;;;;;5046020;28;20521;-60
2022/05/23 15:05:10;;;;;;;16.83;6.20;;;;;;;;;;5049705;28;20040;-57
2022/05/23 15:07:36;;;;;;;12.68;2.47;;;;;;;;;;5044461;28;20017;-60
2022/05/23 15:10:03;;;;;;;6.75;2.25;;;;;;;;;;5053446;28;20127;-60
2022/05/23 15:12:28;;;;;;;9.70;2.33;;;;;;;;;;5049111;28;20025;-60
2022/05/23 15:14:54;;;;;;;8.20;1.95;;;;;;;;;;5054992;28;20287;-60
2022/05/23 15:17:22;;;;;;;7.95;2.17;;;;;;;;;;5041614;28;20444;-59
2022/05/23 15:19:48;;;;;;;14.55;2.45;;;;;;;;;;5049431;28;20048;-60
2022/05/23 15:22:20;;;;;;;9.35;2.50;;;;;;;;;;5053103;28;20039;-59
2022/05/23 15:24:46;;;;;;;9.23;2.22;;;;;;;;;;5038452;28;20064;-59
2022/05/23 15:27:13;;;;;;;9.57;2.70;;;;;;;;;;5041779;28;20052;-59
2022/05/23 15:29:39;;;;;;;11.50;2.50;;;;;;;;;;5047498;28;20029;-60
2022/05/23 15:32:04;;;;;;;7.57;2.40;;;;;;;;;;5047453;28;20108;-59
2022/05/23 15:34:30;;;;;;;18.60;3.45;;;;;;;;;;5046058;28;20017;-60
2022/05/23 15:36:55;;;;;;;10.98;2.60;;;;;;;;;;5046348;28;20418;-60
2022/05/23 15:39:21;;;;;;;7.68;2.67;;;;;;;;;;5045036;28;20029;-60
2022/05/23 15:41:51;;;;;;;5.63;2.65;;;;;;;;;;5048264;28;20021;-60
2022/05/23 15:44:19;;;;;;;12.82;2.50;;;;;;;;;;5040366;28;20112;-60
2022/05/23 15:46:47;;;;;;;7.60;2.50;;;;;;;;;;5046121;28;22083;-60
2022/05/23 15:49:13;;;;;;;10.02;3.08;;;;;;;;;;5046962;28;20087;-60
2022/05/23 15:51:40;;;;;;;6.55;2.80;;;;;;;;;;5045279;28;20029;-60
2022/05/23 15:54:07;;;;;;;7.65;3.13;;;;;;;;;;5042667;28;20029;-60
2022/05/23 15:56:33;;;;;;;12.60;3.95;;;;;;;;;;5044111;28;20030;-60
2022/05/23 15:58:58;;;;;;;12.18;3.70;;;;;;;;;;5046256;28;20087;-60
2022/05/23 16:01:25;;;;;;;6.55;2.85;;;;;;;;;;5052318;28;20399;-60
2022/05/23 16:03:50;;;;;;;8.00;2.70;;;;;;;;;;5050368;28;20402;-60
2022/05/23 16:06:17;;;;;;;12.15;3.88;;;;;;;;;;5043936;28;20033;-60
2022/05/23 16:08:43;;;;;;;12.07;3.63;;;;;;;;;;5045059;28;20025;-60
2022/05/23 16:11:17;;;;;;;5.45;2.63;;;;;;;;;;5047819;28;20025;-60
2022/05/23 16:13:42;;;;;;;10.27;3.15;;;;;;;;;;5052207;28;20044;-60